createdAt,value
2023-03-01T00:01:50.126Z,102975.56
2023-03-01T00:04:18.722Z,102967.66
2023-03-01T00:06:47.590Z,102980.00
2023-03-01T00:09:16.710Z,102972.41
2023-03-01T00:11:46.752Z,102972.88
2023-03-01T00:14:17.257Z,102968.78
2023-03-01T00:16:47.559Z,102960.22
2023-03-01T00:19:20.756Z,102955.13
2023-03-01T00:21:49.245Z,102969.63
2023-03-01T00:24:18.070Z,102969.47
2023-03-01T00:26:47.849Z,102969.88
2023-03-01T00:29:16.184Z,102960.84
2023-03-01T00:31:44.749Z,102969.63
2023-03-01T00:34:13.007Z,102957.16
2023-03-01T00:36:41.336Z,102963.09
2023-03-01T00:39:15.498Z,102959.00
2023-03-01T00:41:48.056Z,102960.63
2023-03-01T00:44:16.262Z,102957.59
2023-03-01T00:46:44.571Z,102957.00
2023-03-01T00:49:12.838Z,102950.28
2023-03-01T00:51:42.465Z,102943.34
2023-03-01T00:54:11.499Z,102942.75
2023-03-01T00:56:39.893Z,102937.44
2023-03-01T00:59:09.545Z,102934.78
2023-03-01T01:01:37.914Z,102932.13
2023-03-01T01:04:09.379Z,102933.97
2023-03-01T01:06:40.751Z,102928.41
2023-03-01T01:09:10.420Z,102932.13
2023-03-01T01:11:39.124Z,102931.66
2023-03-01T01:14:07.659Z,102936.41
2023-03-01T01:16:37.745Z,102933.28
2023-03-01T01:19:06.330Z,102927.97
2023-03-01T01:21:34.675Z,102924.28
2023-03-01T01:24:06.313Z,102921.44
2023-03-01T01:26:36.283Z,102915.31
2023-03-01T01:29:06.922Z,102914.47
2023-03-01T01:31:38.794Z,102899.41
2023-03-01T01:34:10.273Z,102903.88
2023-03-01T01:36:38.672Z,102907.00
2023-03-01T01:39:07.241Z,102899.44
2023-03-01T01:41:35.853Z,102905.19
2023-03-01T01:44:17.887Z,102898.28
2023-03-01T01:46:51.714Z,102896.25
2023-03-01T01:49:30.829Z,102894.03
2023-03-01T01:52:07.935Z,102888.34
2023-03-01T01:54:44.352Z,102880.81
2023-03-01T01:57:20.693Z,102871.41
2023-03-01T01:59:55.062Z,102875.34
2023-03-01T02:02:25.148Z,102870.25
2023-03-01T02:05:05.009Z,102871.25
2023-03-01T02:07:33.820Z,102869.84
2023-03-01T02:10:02.572Z,102864.16
2023-03-01T02:12:31.779Z,102851.72
2023-03-01T02:15:00.174Z,102856.91
2023-03-01T02:17:29.853Z,102862.03
2023-03-01T02:20:17.036Z,102867.56
2023-03-01T02:22:47.593Z,102867.19
2023-03-01T02:25:31.845Z,102870.06
2023-03-01T02:28:09.776Z,102860.88
2023-03-01T02:30:59.488Z,102860.28
2023-03-01T02:33:27.592Z,102869.69
2023-03-01T02:35:57.349Z,102863.00
2023-03-01T02:38:26.314Z,102870.38
2023-03-01T02:40:56.031Z,102867.28
2023-03-01T02:43:29.929Z,102865.03
2023-03-01T02:46:01.729Z,102859.13
2023-03-01T02:48:29.980Z,102858.56
2023-03-01T02:51:13.878Z,102864.88
2023-03-01T02:53:51.953Z,102851.63
2023-03-01T02:56:20.522Z,102849.38
2023-03-01T02:58:52.542Z,102852.03
2023-03-01T03:01:22.732Z,102859.19
2023-03-01T03:03:51.096Z,102856.31
2023-03-01T03:06:19.369Z,102856.94
2023-03-01T03:08:47.716Z,102857.97
2023-03-01T03:11:16.213Z,102854.69
2023-03-01T03:13:49.104Z,102857.56
2023-03-01T03:16:17.717Z,102856.97
2023-03-01T03:18:47.548Z,102864.13
2023-03-01T03:21:17.269Z,102862.47
2023-03-01T03:23:46.053Z,102857.16
2023-03-01T03:26:16.242Z,102865.13
2023-03-01T03:28:44.640Z,102855.53
2023-03-01T03:31:13.032Z,102857.16
2023-03-01T03:33:41.315Z,102853.50
2023-03-01T03:36:13.837Z,102854.09
2023-03-01T03:38:42.658Z,102861.84
2023-03-01T03:41:11.092Z,102861.63
2023-03-01T03:43:43.571Z,102858.97
2023-03-01T03:46:13.386Z,102866.91
2023-03-01T03:48:44.869Z,102860.81
2023-03-01T03:51:16.140Z,102861.63
2023-03-01T03:53:45.353Z,102861.63
2023-03-01T03:56:14.221Z,102854.28
2023-03-01T03:58:42.688Z,102856.31
2023-03-01T04:01:10.951Z,102847.13
2023-03-01T04:03:39.222Z,102849.56
2023-03-01T04:06:08.307Z,102833.63
2023-03-01T04:08:38.000Z,102832.59
2023-03-01T04:11:21.524Z,102830.97
2023-03-01T04:13:50.200Z,102835.25
2023-03-01T04:16:18.684Z,102824.63
2023-03-01T04:18:47.632Z,102823.59
2023-03-01T04:21:16.007Z,102814.00
2023-03-01T04:23:45.797Z,102813.19
2023-03-01T04:26:14.085Z,102819.31
2023-03-01T04:28:46.307Z,102815.03
2023-03-01T04:31:18.401Z,102802.59
2023-03-01T04:33:49.912Z,102807.91
2023-03-01T04:36:19.474Z,102803.84
2023-03-01T04:38:49.407Z,102806.50
2023-03-01T04:41:20.750Z,102803.22
2023-03-01T04:43:50.372Z,102803.22
2023-03-01T04:46:21.895Z,102805.88
2023-03-01T04:48:51.404Z,102805.88
2023-03-01T04:51:19.799Z,102810.19
2023-03-01T04:53:49.890Z,102813.84
2023-03-01T04:56:19.025Z,102818.16
2023-03-01T04:58:48.349Z,102805.06
2023-03-01T05:01:20.344Z,102810.19
2023-03-01T05:03:51.049Z,102802.41
2023-03-01T05:06:21.436Z,102797.09
2023-03-01T05:08:51.144Z,102797.91
2023-03-01T05:11:19.401Z,102792.59
2023-03-01T05:13:47.821Z,102795.88
2023-03-01T05:16:16.239Z,102794.25
2023-03-01T05:18:45.190Z,102788.94
2023-03-01T05:21:17.690Z,102782.00
2023-03-01T05:23:47.877Z,102790.97
2023-03-01T05:26:28.332Z,102794.25
2023-03-01T05:28:59.758Z,102794.25
2023-03-01T05:31:28.925Z,102782.00
2023-03-01T05:33:57.210Z,102786.50
2023-03-01T05:36:25.635Z,102792.03
2023-03-01T05:38:53.957Z,102788.56
2023-03-01T05:41:23.665Z,102782.44
2023-03-01T05:43:52.052Z,102783.66
2023-03-01T05:46:20.360Z,102779.59
2023-03-01T05:48:49.357Z,102782.47
2023-03-01T05:51:18.577Z,102775.56
2023-03-01T05:53:46.835Z,102781.28
2023-03-01T05:56:15.148Z,102768.22
2023-03-01T05:58:44.875Z,102767.63
2023-03-01T06:01:15.127Z,102771.50
2023-03-01T06:03:43.494Z,102766.44
2023-03-01T06:06:11.830Z,102768.28
2023-03-01T06:08:40.110Z,102765.84
2023-03-01T06:11:08.694Z,102770.53
2023-03-01T06:13:37.441Z,102776.88
2023-03-01T06:16:09.765Z,102771.56
2023-03-01T06:18:38.576Z,102778.72
2023-03-01T06:21:07.804Z,102767.72
2023-03-01T06:23:36.985Z,102785.47
2023-03-01T06:26:09.358Z,102787.75
2023-03-01T06:28:38.035Z,102785.09
2023-03-01T06:31:09.959Z,102793.44
2023-03-01T06:33:38.482Z,102798.97
2023-03-01T06:36:08.029Z,102790.22
2023-03-01T06:38:36.496Z,102785.09
2023-03-01T06:41:05.000Z,102778.16
2023-03-01T06:43:33.449Z,102787.97
2023-03-01T06:46:02.130Z,102778.75
2023-03-01T06:48:32.029Z,102780.41
2023-03-01T06:51:01.616Z,102778.16
2023-03-01T06:53:30.187Z,102781.41
2023-03-01T06:56:00.167Z,102775.06
2023-03-01T06:58:28.880Z,102776.69
2023-03-01T07:00:57.154Z,102779.97
2023-03-01T07:03:25.417Z,102784.41
2023-03-01T07:05:55.074Z,102770.28
2023-03-01T07:08:23.864Z,102777.59
2023-03-01T07:10:58.052Z,102781.22
2023-03-01T07:13:26.710Z,102777.72
2023-03-01T07:15:55.088Z,102781.13
2023-03-01T07:18:23.430Z,102786.22
2023-03-01T07:20:52.145Z,102784.31
2023-03-01T07:23:21.833Z,102788.31
2023-03-01T07:25:55.170Z,102787.84
2023-03-01T07:28:25.534Z,102778.78
2023-03-01T07:30:54.290Z,102785.22
2023-03-01T07:33:22.766Z,102779.41
2023-03-01T07:35:51.116Z,102778.09
2023-03-01T07:38:19.400Z,102783.69
2023-03-01T07:40:49.062Z,102777.06
2023-03-01T07:43:17.361Z,102779.66
2023-03-01T07:45:46.154Z,102788.13
2023-03-01T07:48:14.393Z,102781.28
2023-03-01T07:50:43.078Z,102784.22
2023-03-01T07:53:11.751Z,102787.97
2023-03-01T07:55:40.219Z,102782.72
2023-03-01T07:58:09.946Z,102784.38
2023-03-01T08:00:38.289Z,102764.97
2023-03-01T08:03:06.692Z,102770.88
2023-03-01T08:05:35.023Z,102779.22
2023-03-01T08:08:03.457Z,102777.75
2023-03-01T08:10:31.746Z,102770.91
2023-03-01T08:13:00.011Z,102765.72
2023-03-01T08:15:29.666Z,102782.59
2023-03-01T08:17:57.964Z,102765.06
2023-03-01T08:20:26.271Z,102774.97
2023-03-01T08:22:54.629Z,102769.16
2023-03-01T08:25:22.934Z,102773.13
2023-03-01T08:27:51.146Z,102779.91
2023-03-01T08:30:20.149Z,102777.75
2023-03-01T08:32:49.930Z,102770.53
2023-03-01T08:35:18.605Z,102765.22
2023-03-01T08:37:46.897Z,102756.84
2023-03-01T08:40:16.146Z,102755.22
2023-03-01T08:42:45.277Z,102754.34
2023-03-01T08:45:15.243Z,102758.03
2023-03-01T08:47:43.564Z,102744.84
2023-03-01T08:50:13.726Z,102759.72
2023-03-01T08:52:42.050Z,102759.31
2023-03-01T08:55:11.483Z,102751.75
2023-03-01T08:57:39.743Z,102761.53
2023-03-01T09:00:10.580Z,102749.91
2023-03-01T09:02:39.787Z,102747.59
2023-03-01T09:05:08.902Z,102749.31
2023-03-01T09:07:38.527Z,102755.88
2023-03-01T09:10:08.233Z,102748.16
2023-03-01T09:12:36.585Z,102751.44
2023-03-01T09:15:05.745Z,102735.72
2023-03-01T09:17:33.967Z,102734.69
2023-03-01T09:20:02.246Z,102739.28
2023-03-01T09:22:30.503Z,102732.31
2023-03-01T09:25:00.135Z,102729.97
2023-03-01T09:27:28.575Z,102726.22
2023-03-01T09:29:57.275Z,102727.56
2023-03-01T09:32:25.645Z,102720.03
2023-03-01T09:35:05.513Z,102722.47
2023-03-01T09:37:35.573Z,102722.47
2023-03-01T09:40:07.432Z,102713.31
2023-03-01T09:42:38.286Z,102716.81
2023-03-01T09:45:08.403Z,102721.34
2023-03-01T09:47:38.202Z,102717.28
2023-03-01T09:50:13.448Z,102707.03
2023-03-01T09:52:44.728Z,102716.94
2023-03-01T09:55:17.220Z,102702.63
2023-03-01T09:57:52.784Z,102701.78
2023-03-01T10:00:37.736Z,102704.97
2023-03-01T10:03:17.949Z,102705.47
2023-03-01T10:06:01.258Z,102702.75
2023-03-01T10:08:39.939Z,102708.41
2023-03-01T10:11:25.333Z,102705.09
2023-03-01T10:14:01.125Z,102695.09
2023-03-01T10:16:39.369Z,102702.81
2023-03-01T10:19:14.765Z,102683.31
2023-03-01T10:21:47.783Z,102684.22
2023-03-01T10:24:20.985Z,102680.03
2023-03-01T10:26:57.594Z,102677.28
2023-03-01T10:29:32.891Z,102664.19
2023-03-01T10:32:01.326Z,102662.50
2023-03-01T10:34:33.129Z,102664.88
2023-03-01T10:37:13.505Z,102664.88
2023-03-01T10:40:00.252Z,102661.16
2023-03-01T10:42:32.770Z,102655.13
2023-03-01T10:45:17.770Z,102662.88
2023-03-01T10:47:46.409Z,102651.00
2023-03-01T10:50:23.190Z,102644.13
2023-03-01T10:53:01.617Z,102651.41
2023-03-01T10:55:37.157Z,102652.28
2023-03-01T10:58:21.733Z,102645.81
2023-03-01T11:00:53.726Z,102635.16
2023-03-01T11:03:26.015Z,102643.16
2023-03-01T11:06:02.645Z,102640.59
2023-03-01T11:08:42.100Z,102640.69
2023-03-01T11:11:33.773Z,102635.59
2023-03-01T11:14:25.043Z,102634.50
2023-03-01T11:17:03.137Z,102635.59
2023-03-01T11:19:31.545Z,102629.00
2023-03-01T11:22:05.437Z,102630.78
2023-03-01T11:24:43.194Z,102637.59
2023-03-01T11:27:21.874Z,102638.41
2023-03-01T11:29:59.377Z,102637.59
2023-03-01T11:32:33.407Z,102631.41
2023-03-01T11:35:07.721Z,102630.38
2023-03-01T11:37:42.094Z,102621.25
2023-03-01T11:40:26.679Z,102618.66
2023-03-01T11:43:07.480Z,102615.03
2023-03-01T11:45:52.745Z,102608.16
2023-03-01T11:48:49.408Z,102607.13
2023-03-01T11:51:27.644Z,102608.22
2023-03-01T11:54:21.970Z,102610.34
2023-03-01T11:56:58.432Z,102602.31
2023-03-01T12:00:09.703Z,102610.22
2023-03-01T12:03:22.753Z,102598.00
2023-03-01T12:06:08.021Z,102598.44
2023-03-01T12:08:43.298Z,102600.03
2023-03-01T12:11:28.133Z,102592.16
2023-03-01T12:14:34.453Z,102602.31
2023-03-01T12:17:31.637Z,102599.50
2023-03-01T12:20:16.845Z,102590.81
2023-03-01T12:23:20.896Z,102584.31
2023-03-01T12:25:55.511Z,102579.56
2023-03-01T12:28:54.229Z,102571.88
2023-03-01T12:31:58.015Z,102569.28
2023-03-01T12:35:05.218Z,102563.88
2023-03-01T12:37:47.946Z,102549.66
2023-03-01T12:40:41.599Z,102543.28
2023-03-01T12:43:23.169Z,102536.13
2023-03-01T12:46:09.042Z,102540.91
2023-03-01T12:48:50.780Z,102523.91
2023-03-01T12:51:26.638Z,102535.38
2023-03-01T12:53:58.516Z,102530.19
2023-03-01T12:56:30.890Z,102532.13
2023-03-01T12:59:08.309Z,102523.09
2023-03-01T13:01:45.504Z,102516.38
2023-03-01T13:05:00.316Z,102520.84
2023-03-01T13:07:38.048Z,102517.28
2023-03-01T13:10:23.644Z,102514.94
2023-03-01T13:13:10.906Z,102514.66
2023-03-01T13:15:40.521Z,102511.38
2023-03-01T13:18:34.507Z,102520.44
2023-03-01T13:21:06.770Z,102508.34
2023-03-01T13:23:39.676Z,102502.41
2023-03-01T13:26:17.100Z,102496.56
2023-03-01T13:29:03.319Z,102500.13
2023-03-01T13:32:02.730Z,102489.44
2023-03-01T13:34:54.744Z,102484.38
2023-03-01T13:37:38.445Z,102483.31
2023-03-01T13:41:01.007Z,102464.44
2023-03-01T13:43:34.124Z,102467.63
2023-03-01T13:46:10.722Z,102460.03
2023-03-01T13:48:40.850Z,102457.06
2023-03-01T13:51:13.167Z,102455.72
2023-03-01T13:53:46.090Z,102439.44
2023-03-01T13:56:19.683Z,102430.72
2023-03-01T13:58:53.124Z,102434.81
2023-03-01T14:01:29.390Z,102441.41
2023-03-01T14:04:01.834Z,102433.06
2023-03-01T14:06:32.752Z,102437.38
2023-03-01T14:09:10.855Z,102423.78
2023-03-01T14:12:25.520Z,102417.72
2023-03-01T14:15:02.003Z,102411.25
2023-03-01T14:18:06.875Z,102413.44
2023-03-01T14:20:41.417Z,102411.25
2023-03-01T14:23:15.372Z,102400.47
2023-03-01T14:25:50.869Z,102409.03
2023-03-01T14:28:23.890Z,102408.66
2023-03-01T14:30:54.410Z,102403.44
2023-03-01T14:33:26.656Z,102412.63
2023-03-01T14:35:58.874Z,102407.88
2023-03-01T14:38:35.814Z,102404.66
2023-03-01T14:41:10.833Z,102402.47
2023-03-01T14:43:44.753Z,102394.94
2023-03-01T14:46:22.297Z,102393.03
2023-03-01T14:48:53.338Z,102391.19
2023-03-01T14:51:21.781Z,102380.44
2023-03-01T14:53:51.488Z,102391.53
2023-03-01T14:56:21.927Z,102382.84
2023-03-01T14:58:56.104Z,102393.94
2023-03-01T15:01:24.823Z,102388.06
2023-03-01T15:03:53.708Z,102391.03
2023-03-01T15:06:24.847Z,102379.47
2023-03-01T15:08:54.428Z,102383.44
2023-03-01T15:11:25.905Z,102370.25
2023-03-01T15:13:56.197Z,102372.75
2023-03-01T15:16:27.544Z,102369.03
2023-03-01T15:18:58.159Z,102369.94
2023-03-01T15:21:30.053Z,102365.75
2023-03-01T15:24:04.639Z,102359.84
2023-03-01T15:26:38.759Z,102358.25
2023-03-01T15:29:19.259Z,102350.66
2023-03-01T15:31:58.405Z,102357.66
2023-03-01T15:34:30.230Z,102353.03
2023-03-01T15:37:01.557Z,102354.44
2023-03-01T15:39:40.247Z,102354.53
2023-03-01T15:42:12.466Z,102348.63
2023-03-01T15:44:46.930Z,102344.94
2023-03-01T15:47:32.789Z,102339.59
2023-03-01T15:50:02.752Z,102339.72
2023-03-01T15:52:40.261Z,102333.59
2023-03-01T15:55:18.884Z,102338.59
2023-03-01T15:57:47.497Z,102331.38
2023-03-01T16:00:19.367Z,102338.19
2023-03-01T16:02:48.106Z,102341.72
2023-03-01T16:05:24.182Z,102338.00
2023-03-01T16:07:52.799Z,102337.03
2023-03-01T16:10:21.707Z,102331.69
2023-03-01T16:12:50.717Z,102336.06
2023-03-01T16:15:24.161Z,102324.50
2023-03-01T16:17:53.188Z,102331.28
2023-03-01T16:20:28.532Z,102317.06
2023-03-01T16:22:58.809Z,102318.97
2023-03-01T16:25:27.072Z,102320.34
2023-03-01T16:27:56.313Z,102319.84
2023-03-01T16:30:26.048Z,102311.53
2023-03-01T16:32:55.452Z,102317.03
2023-03-01T16:35:24.595Z,102321.94
2023-03-01T16:37:54.874Z,102321.50
2023-03-01T16:40:26.938Z,102317.00
2023-03-01T16:43:00.358Z,102320.56
2023-03-01T16:45:36.122Z,102319.03
2023-03-01T16:48:04.788Z,102314.00
2023-03-01T16:50:33.099Z,102318.34
2023-03-01T16:53:02.624Z,102312.22
2023-03-01T16:55:31.096Z,102308.53
2023-03-01T16:57:59.364Z,102318.25
2023-03-01T17:00:29.211Z,102319.88
2023-03-01T17:02:57.547Z,102317.28
2023-03-01T17:05:26.872Z,102319.44
2023-03-01T17:07:56.620Z,102318.44
2023-03-01T17:10:24.963Z,102325.75
2023-03-01T17:12:53.274Z,102325.81
2023-03-01T17:15:21.620Z,102327.75
2023-03-01T17:17:51.989Z,102324.00
2023-03-01T17:20:21.020Z,102328.66
2023-03-01T17:22:49.378Z,102324.94
2023-03-01T17:25:17.696Z,102330.06
2023-03-01T17:27:46.080Z,102323.38
2023-03-01T17:30:16.370Z,102329.91
2023-03-01T17:32:44.985Z,102328.03
2023-03-01T17:35:14.909Z,102329.94
2023-03-01T17:37:46.557Z,102332.44
2023-03-01T17:40:15.755Z,102330.28
2023-03-01T17:42:44.110Z,102333.56
2023-03-01T17:45:13.133Z,102328.19
2023-03-01T17:47:41.545Z,102335.22
2023-03-01T17:50:12.377Z,102341.47
2023-03-01T17:52:42.607Z,102340.38
2023-03-01T17:55:12.290Z,102341.25
2023-03-01T17:57:41.369Z,102336.72
2023-03-01T18:00:13.686Z,102330.00
2023-03-01T18:02:42.097Z,102345.13
2023-03-01T18:05:11.388Z,102351.59
2023-03-01T18:07:41.105Z,102350.03
2023-03-01T18:10:11.083Z,102350.84
2023-03-01T18:12:39.841Z,102356.78
2023-03-01T18:15:10.153Z,102352.75
2023-03-01T18:17:38.847Z,102353.88
2023-03-01T18:20:09.548Z,102347.44
2023-03-01T18:22:38.427Z,102356.59
2023-03-01T18:25:09.192Z,102356.63
2023-03-01T18:27:37.825Z,102352.34
2023-03-01T18:30:08.940Z,102351.00
2023-03-01T18:32:37.502Z,102342.41
2023-03-01T18:35:07.106Z,102349.16
2023-03-01T18:37:35.429Z,102349.66
2023-03-01T18:40:04.672Z,102355.59
2023-03-01T18:42:34.397Z,102347.03
2023-03-01T18:45:02.715Z,102346.50
2023-03-01T18:47:30.984Z,102350.78
2023-03-01T18:49:59.330Z,102353.50
2023-03-01T18:52:27.629Z,102347.84
2023-03-01T18:54:56.572Z,102341.72
2023-03-01T18:57:24.938Z,102334.47
2023-03-01T18:59:54.574Z,102329.38
2023-03-01T19:02:22.842Z,102323.53
2023-03-01T19:04:51.714Z,102329.94
2023-03-01T19:07:20.490Z,102324.63
2023-03-01T19:09:49.035Z,102330.00
2023-03-01T19:12:17.339Z,102328.66
2023-03-01T19:14:45.638Z,102321.44
2023-03-01T19:17:15.839Z,102316.59
2023-03-01T19:19:44.157Z,102310.69
2023-03-01T19:22:12.435Z,102328.91
2023-03-01T19:24:40.804Z,102313.13
2023-03-01T19:27:09.108Z,102311.28
2023-03-01T19:29:37.378Z,102302.41
2023-03-01T19:32:06.091Z,102309.63
2023-03-01T19:34:37.124Z,102306.69
2023-03-01T19:37:06.027Z,102306.13
2023-03-01T19:39:34.394Z,102310.69
2023-03-01T19:42:02.753Z,102312.56
2023-03-01T19:44:32.455Z,102309.63
2023-03-01T19:47:00.754Z,102309.13
2023-03-01T19:49:30.241Z,102324.66
2023-03-01T19:51:59.985Z,102318.78
2023-03-01T19:54:28.355Z,102326.25
2023-03-01T19:56:56.904Z,102322.50
2023-03-01T19:59:25.580Z,102321.16
2023-03-01T20:01:54.048Z,102333.22
2023-03-01T20:04:22.407Z,102331.88
2023-03-01T20:06:50.783Z,102334.78
2023-03-01T20:09:22.266Z,102332.13
2023-03-01T20:11:51.582Z,102325.16
2023-03-01T20:14:23.345Z,102331.31
2023-03-01T20:16:53.248Z,102323.28
2023-03-01T20:19:22.125Z,102330.81
2023-03-01T20:21:50.490Z,102329.47
2023-03-01T20:24:20.486Z,102337.75
2023-03-01T20:26:48.796Z,102335.34
2023-03-01T20:29:17.164Z,102330.53
2023-03-01T20:31:45.483Z,102331.03
2023-03-01T20:34:13.826Z,102334.78
2023-03-01T20:36:44.249Z,102330.22
2023-03-01T20:39:13.012Z,102332.66
2023-03-01T20:41:42.905Z,102332.09
2023-03-01T20:44:11.399Z,102335.31
2023-03-01T20:46:39.938Z,102326.19
2023-03-01T20:49:08.423Z,102333.94
2023-03-01T20:51:36.822Z,102337.41
2023-03-01T20:54:05.489Z,102324.84
2023-03-01T20:56:34.276Z,102329.91
2023-03-01T20:59:05.405Z,102321.84
2023-03-01T21:01:34.104Z,102321.81
2023-03-01T21:04:02.512Z,102318.63
2023-03-01T21:06:31.419Z,102316.44
2023-03-01T21:09:00.078Z,102325.28
2023-03-01T21:11:28.515Z,102312.69
2023-03-01T21:13:57.764Z,102323.91
2023-03-01T21:16:28.195Z,102327.09
2023-03-01T21:18:56.503Z,102319.59
2023-03-01T21:21:25.421Z,102319.59
2023-03-01T21:23:55.331Z,102309.91
2023-03-01T21:26:25.866Z,102312.06
2023-03-01T21:28:58.625Z,102313.66
2023-03-01T21:31:32.114Z,102306.97
2023-03-01T21:34:04.110Z,102305.38
2023-03-01T21:36:33.547Z,102309.91
2023-03-01T21:39:02.756Z,102307.50
2023-03-01T21:41:34.914Z,102308.81
2023-03-01T21:44:04.895Z,102302.91
2023-03-01T21:46:37.592Z,102301.84
2023-03-01T21:49:07.237Z,102299.97
2023-03-01T21:51:36.976Z,102306.13
2023-03-01T21:54:05.753Z,102307.50
2023-03-01T21:56:39.092Z,102301.09
2023-03-01T21:59:10.086Z,102301.09
2023-03-01T22:01:40.411Z,102294.94
2023-03-01T22:04:08.732Z,102304.81
2023-03-01T22:06:40.818Z,102298.69
2023-03-01T22:09:13.792Z,102297.63
2023-03-01T22:11:45.087Z,102296.81
2023-03-01T22:14:14.447Z,102305.63
2023-03-01T22:16:46.752Z,102304.03
2023-03-01T22:19:17.490Z,102293.56
2023-03-01T22:21:49.883Z,102299.19
2023-03-01T22:24:20.484Z,102302.38
2023-03-01T22:26:51.675Z,102298.34
2023-03-01T22:29:23.403Z,102307.69
2023-03-01T22:31:54.327Z,102315.13
2023-03-01T22:34:23.539Z,102313.00
2023-03-01T22:36:52.625Z,102306.31
2023-03-01T22:39:22.373Z,102308.69
2023-03-01T22:41:51.393Z,102300.16
2023-03-01T22:44:23.016Z,102307.06
2023-03-01T22:46:53.442Z,102306.50
2023-03-01T22:49:22.416Z,102300.88
2023-03-01T22:51:51.503Z,102302.16
2023-03-01T22:54:20.567Z,102301.59
2023-03-01T22:56:49.612Z,102298.88
2023-03-01T22:59:20.820Z,102297.78
2023-03-01T23:01:49.197Z,102299.94
2023-03-01T23:04:20.379Z,102297.75
2023-03-01T23:06:53.769Z,102302.56
2023-03-01T23:09:25.286Z,102298.78
2023-03-01T23:11:54.159Z,102296.63
2023-03-01T23:14:23.090Z,102292.84
2023-03-01T23:16:52.538Z,102306.72
2023-03-01T23:19:22.238Z,102298.16
2023-03-01T23:21:50.994Z,102301.31
2023-03-01T23:24:21.512Z,102311.47
2023-03-01T23:26:53.382Z,102306.59
2023-03-01T23:29:22.686Z,102299.63
2023-03-01T23:31:51.038Z,102301.22
2023-03-01T23:34:21.070Z,102298.22
2023-03-01T23:36:49.415Z,102305.94
2023-03-01T23:39:17.712Z,102304.56
2023-03-01T23:41:46.070Z,102296.28
2023-03-01T23:44:17.828Z,102301.28
2023-03-01T23:46:47.398Z,102297.28
2023-03-01T23:49:19.037Z,102296.69
2023-03-01T23:51:49.496Z,102300.69
2023-03-01T23:54:20.691Z,102296.63
2023-03-01T23:56:49.032Z,102293.44
2023-03-01T23:59:19.635Z,102289.41
